Time;durP1;ratioP1;P1;durP2;ratioP2;P2;SDS_P1;SDS_P2;PMS_P1;PMS_P2;Temp;Humidity;BMP_temperature;BMP_pressure;BME280_temperature;BME280_humidity;BME280_pressure;Samples;Min_cycle;Max_cycle;Signal;HPM_P1;HPM_P2
2022/08/22 00:00:28;;;;;;;7.95;4.93;;;;;;;15.76;100.00;101558.97;5088754;28;20115;-65
2022/08/22 00:03:02;;;;;;;8.35;4.60;;;;;;;15.72;100.00;101548.41;5089474;28;20028;-65
2022/08/22 00:05:34;;;;;;;9.35;5.00;;;;;;;15.70;100.00;101538.81;5089085;28;20024;-65
2022/08/22 00:08:27;;;;;;;7.55;4.72;;;;;;;15.70;100.00;101544.03;5089486;28;20028;-65
2022/08/22 00:10:58;;;;;;;7.15;4.78;;;;;;;15.70;100.00;101549.25;5061360;28;20039;-65
2022/08/22 00:13:41;;;;;;;7.47;4.68;;;;;;;15.69;100.00;101550.09;5088979;28;20047;-65
2022/08/22 00:16:31;;;;;;;8.27;5.22;;;;;;;15.72;100.00;101552.78;5088845;28;20059;-65
2022/08/22 00:19:20;;;;;;;7.32;4.43;;;;;;;15.73;100.00;101555.44;5088828;28;20055;-65
2022/08/22 00:22:03;;;;;;;5.90;5.30;;;;;;;15.76;100.00;101554.59;5077937;28;20023;-65
2022/08/22 00:24:36;;;;;;;7.30;5.25;;;;;;;15.78;100.00;101539.84;5089692;28;20364;-65
2022/08/22 00:27:11;;;;;;;7.55;5.47;;;;;;;15.80;100.00;101550.31;5088821;28;20043;-65
2022/08/22 00:29:58;;;;;;;9.43;5.60;;;;;;;15.80;100.00;101551.22;5088159;28;20114;-65
2022/08/22 00:32:41;;;;;;;7.60;5.32;;;;;;;15.82;100.00;101556.47;5089008;28;20028;-65
2022/08/22 00:35:18;;;;;;;8.23;5.30;;;;;;;15.80;100.00;101555.53;5088833;28;20571;-65
2022/08/22 00:37:55;;;;;;;7.30;4.95;;;;;;;15.80;100.00;101556.44;5088357;28;20024;-65
2022/08/22 00:41:00;;;;;;;8.90;5.28;;;;;;;15.79;100.00;101549.47;5088377;28;20023;-65
2022/08/22 00:43:50;;;;;;;8.15;4.80;;;;;;;15.78;100.00;101550.28;5023844;28;20529;-65
2022/08/22 00:46:54;;;;;;;7.28;5.22;;;;;;;15.76;100.00;101551.97;5078617;28;20044;-65
2022/08/22 00:49:29;;;;;;;8.88;4.53;;;;;;;15.78;100.00;101552.00;5088202;28;20044;-65
2022/08/22 00:52:23;;;;;;;10.40;5.15;;;;;;;15.79;100.00;101554.69;5088756;28;20040;-65
2022/08/22 00:55:07;;;;;;;9.68;5.07;;;;;;;15.80;100.00;101560.78;5063425;28;20059;-65
2022/08/22 00:57:57;;;;;;;7.68;4.45;;;;;;;15.77;100.00;101556.38;5074693;28;20046;-65
2022/08/22 01:00:30;;;;;;;9.15;5.05;;;;;;;15.75;100.00;101559.78;5088436;28;20032;-65
2022/08/22 01:03:20;;;;;;;6.28;4.78;;;;;;;15.75;100.00;101563.28;5088809;28;20042;-65
2022/08/22 01:06:00;;;;;;;5.03;4.45;;;;;;;15.75;100.00;101560.69;5088603;28;20036;-65
2022/08/22 01:08:41;;;;;;;7.68;4.97;;;;;;;15.75;100.00;101558.06;5088761;28;20034;-64
2022/08/22 01:11:25;;;;;;;9.97;5.73;;;;;;;15.69;100.00;101557.91;5088624;28;20020;-64
2022/08/22 01:14:11;;;;;;;11.98;5.82;;;;;;;15.61;100.00;101555.16;5086969;28;20028;-65
2022/08/22 01:16:59;;;;;;;9.35;5.45;;;;;;;15.61;100.00;101560.38;5088889;28;20376;-65
2022/08/22 01:19:36;;;;;;;7.55;5.43;;;;;;;15.60;100.00;101550.75;5088665;28;20066;-65
2022/08/22 01:22:24;;;;;;;9.85;5.65;;;;;;;15.55;100.00;101550.69;5087158;28;20063;-65
2022/08/22 01:25:30;;;;;;;6.78;5.07;;;;;;;15.52;100.00;101555.84;5088702;28;20028;-65
2022/08/22 01:28:33;;;;;;;7.40;5.43;;;;;;;15.50;100.00;101552.31;5087737;28;20084;-65
2022/08/22 01:31:36;;;;;;;8.80;5.80;;;;;;;15.48;100.00;101557.50;5088563;28;20158;-65
2022/08/22 01:34:20;;;;;;;8.23;6.05;;;;;;;15.48;100.00;101543.53;5088458;28;20027;-65
2022/08/22 01:36:58;;;;;;;6.18;5.45;;;;;;;15.49;100.00;101543.56;5091305;28;20020;-65
2022/08/22 01:39:34;;;;;;;8.57;6.65;;;;;;;15.46;100.00;101546.13;5092024;28;20054;-65
2022/08/22 01:42:41;;;;;;;8.00;6.05;;;;;;;15.46;100.00;101540.91;5091524;28;20052;-65
2022/08/22 01:45:37;;;;;;;7.65;6.90;;;;;;;15.50;100.00;101541.84;5091593;28;20044;-65
2022/08/22 01:48:17;;;;;;;8.45;5.82;;;;;;;15.53;100.00;101544.53;5090240;28;20028;-65
2022/08/22 01:50:51;;;;;;;10.57;6.95;;;;;;;15.54;100.00;101545.41;5091262;28;20028;-65
2022/08/22 01:53:26;;;;;;;8.02;7.18;;;;;;;15.56;100.00;101541.13;5092042;28;20024;-65
2022/08/22 01:56:14;;;;;;;10.57;8.45;;;;;;;15.56;100.00;101541.97;5091970;28;20087;-65
2022/08/22 01:59:01;;;;;;;9.18;7.65;;;;;;;15.56;100.00;101538.50;5091179;28;20039;-65
2022/08/22 02:01:32;;;;;;;12.13;8.55;;;;;;;15.56;100.00;101539.38;5091727;28;20020;-65
2022/08/22 02:04:08;;;;;;;10.45;8.38;;;;;;;15.56;100.00;101536.75;5091138;28;20020;-65
2022/08/22 02:06:36;;;;;;;8.40;7.57;;;;;;;15.55;100.00;101540.22;5091410;28;20032;-65
2022/08/22 02:09:20;;;;;;;7.85;7.05;;;;;;;15.57;100.00;101542.88;5090936;28;20048;-65
2022/08/22 02:11:54;;;;;;;9.13;6.90;;;;;;;15.57;100.00;101538.53;5091019;28;20024;-65
2022/08/22 02:14:24;;;;;;;10.70;7.22;;;;;;;15.58;100.00;101542.00;5076568;28;20027;-65
2022/08/22 02:17:07;;;;;;;10.15;7.50;;;;;;;15.59;100.00;101539.47;5091283;28;20020;-65
2022/08/22 02:19:43;;;;;;;8.10;7.25;;;;;;;15.63;100.00;101539.50;5090818;28;20024;-65
2022/08/22 02:22:33;;;;;;;8.95;8.05;;;;;;;15.63;100.00;101543.03;5090910;28;20166;-65
2022/08/22 02:25:03;;;;;;;11.10;7.97;;;;;;;15.65;100.00;101540.44;5066507;28;20062;-65
2022/08/22 02:27:51;;;;;;;9.10;8.15;;;;;;;15.64;100.00;101539.53;5091062;28;20426;-65
2022/08/22 02:30:25;;;;;;;10.23;7.65;;;;;;;15.63;100.00;101534.28;5091022;28;20024;-65
2022/08/22 02:32:54;;;;;;;12.00;8.15;;;;;;;15.61;100.00;101534.25;5090626;28;20075;-65
2022/08/22 02:35:34;;;;;;;10.18;8.15;;;;;;;15.59;100.00;101526.41;5090844;28;20065;-65
2022/08/22 02:38:21;;;;;;;9.65;8.02;;;;;;;15.59;100.00;101534.22;5090399;28;20027;-65
2022/08/22 02:41:03;;;;;;;9.85;8.13;;;;;;;15.60;100.00;101530.75;5091107;28;20122;-65
2022/08/22 02:44:00;;;;;;;11.15;8.02;;;;;;;15.59;100.00;101526.41;5085880;28;20029;-65
2022/08/22 02:46:31;;;;;;;11.20;8.88;;;;;;;15.57;100.00;101528.09;5089553;28;20135;-65
2022/08/22 02:49:22;;;;;;;9.75;8.57;;;;;;;15.54;100.00;101528.00;5090733;28;20038;-65
2022/08/22 02:52:10;;;;;;;10.57;9.50;;;;;;;15.54;100.00;101527.13;5090538;28;20086;-65
2022/08/22 02:54:46;;;;;;;10.25;9.18;;;;;;;15.53;100.00;101531.47;5089875;28;20281;-65
2022/08/22 02:57:41;;;;;;;12.52;9.65;;;;;;;15.52;100.00;101524.50;5090525;28;20479;-65
2022/08/22 03:00:14;;;;;;;9.82;8.73;;;;;;;15.53;100.00;101531.47;5083181;28;20048;-65
2022/08/22 03:02:59;;;;;;;10.68;8.40;;;;;;;15.52;100.00;101529.72;5090400;28;20601;-65
2022/08/22 03:05:26;;;;;;;10.27;9.18;;;;;;;15.52;100.00;101521.00;5090150;28;20028;-65
2022/08/22 03:08:01;;;;;;;12.10;9.25;;;;;;;15.50;100.00;101520.97;5090508;28;20055;-65
2022/08/22 03:10:35;;;;;;;9.68;8.77;;;;;;;15.47;100.00;101524.38;5090075;28;20484;-65
2022/08/22 03:13:09;;;;;;;10.50;8.45;;;;;;;15.49;100.00;101527.91;5082348;28;20076;-65
2022/08/22 03:15:46;;;;;;;11.43;9.60;;;;;;;15.50;100.00;101528.78;5083975;28;20032;-65
2022/08/22 03:18:11;;;;;;;15.80;10.05;;;;;;;15.52;100.00;101529.72;5090153;28;20027;-65
2022/08/22 03:20:52;;;;;;;11.32;9.23;;;;;;;15.52;100.00;101529.72;5090084;28;20111;-64
2022/08/22 03:23:36;;;;;;;13.05;8.68;;;;;;;15.49;100.00;101522.69;5066041;28;20120;-64
2022/08/22 03:26:20;;;;;;;10.82;8.73;;;;;;;15.46;100.00;101517.41;5089236;28;20107;-64
2022/08/22 03:28:50;;;;;;;10.98;9.07;;;;;;;15.44;100.00;101505.13;5089974;28;20128;-65
2022/08/22 03:31:22;;;;;;;11.03;9.70;;;;;;;15.45;100.00;101506.91;5089674;28;20020;-65
2022/08/22 03:34:16;;;;;;;12.05;9.30;;;;;;;15.44;100.00;101505.13;5089715;28;20051;-65
2022/08/22 03:37:19;;;;;;;13.20;9.70;;;;;;;15.45;100.00;101506.91;5062191;28;20032;-65
2022/08/22 03:39:56;;;;;;;11.57;9.32;;;;;;;15.44;100.00;101503.41;5089502;28;20012;-65
2022/08/22 03:42:59;;;;;;;11.23;9.07;;;;;;;15.39;100.00;101499.81;5089446;28;20044;-65
2022/08/22 03:45:24;;;;;;;13.43;9.15;;;;;;;15.35;100.00;101504.09;5089490;28;20486;-65
2022/08/22 03:48:11;;;;;;;12.40;9.75;;;;;;;15.30;100.00;101500.50;5089426;28;20039;-65
2022/08/22 03:51:03;;;;;;;10.75;9.23;;;;;;;15.22;100.00;101507.25;5089231;28;20396;-65
2022/08/22 03:54:08;;;;;;;12.88;9.75;;;;;;;15.16;100.00;101507.13;5089375;28;20147;-65
2022/08/22 03:57:07;;;;;;;15.38;10.30;;;;;;;15.08;100.00;101492.16;5089633;28;20024;-65
2022/08/22 03:59:54;;;;;;;11.32;10.10;;;;;;;15.03;100.00;101498.13;5065565;28;20032;-65
2022/08/22 04:02:50;;;;;;;12.70;10.68;;;;;;;14.96;100.00;101499.69;5089112;28;20055;-65
2022/08/22 04:06:03;;;;;;;11.15;10.02;;;;;;;14.92;100.00;101493.53;5089496;28;20024;-65
2022/08/22 04:08:40;;;;;;;13.25;10.43;;;;;;;14.87;100.00;101498.66;5009247;28;20099;-65
2022/08/22 04:11:27;;;;;;;11.60;10.38;;;;;;;14.84;100.00;101497.69;5088469;28;20115;-65
2022/08/22 04:14:07;;;;;;;11.25;10.07;;;;;;;14.79;100.00;101500.13;5089133;28;20028;-65
2022/08/22 04:17:03;;;;;;;11.90;10.27;;;;;;;14.74;100.00;101501.75;5089390;28;20138;-64
2022/08/22 04:20:20;;;;;;;14.65;10.32;;;;;;;14.70;100.00;101498.16;5089679;28;20380;-64
2022/08/22 04:23:01;;;;;;;14.25;10.73;;;;;;;14.65;100.00;101503.28;5054457;28;20036;-65
2022/08/22 04:26:16;;;;;;;10.77;9.68;;;;;;;14.63;100.00;101510.19;5087877;28;20182;-65
2022/08/22 04:28:51;;;;;;;12.02;10.73;;;;;;;14.60;100.00;101504.88;4995195;28;20418;-65
2022/08/22 04:31:28;;;;;;;12.80;10.38;;;;;;;14.59;100.00;101510.94;4990878;28;20168;-65
2022/08/22 04:34:01;;;;;;;15.18;11.23;;;;;;;14.58;100.00;101509.19;5056130;28;20036;-65
2022/08/22 04:36:39;;;;;;;16.65;11.18;;;;;;;14.56;100.00;101518.69;5087464;28;20016;-65
2022/08/22 04:39:17;;;;;;;15.93;10.10;;;;;;;14.58;100.00;101516.13;5087047;28;20032;-65
2022/08/22 04:42:18;;;;;;;12.02;10.73;;;;;;;14.60;100.00;101515.31;5087286;28;20741;-66
2022/08/22 04:44:48;;;;;;;10.68;9.63;;;;;;;14.63;100.00;101510.19;5077379;28;20137;-65
2022/08/22 04:47:30;;;;;;;11.80;10.05;;;;;;;14.65;100.00;101507.59;5081962;28;20025;-65
2022/08/22 04:50:04;;;;;;;10.15;9.02;;;;;;;14.68;100.00;101518.09;5081971;28;20081;-64
2022/08/22 04:52:51;;;;;;;13.05;9.40;;;;;;;14.69;100.00;101513.78;5088872;28;20028;-64
2022/08/22 04:55:34;;;;;;;10.63;9.40;;;;;;;14.72;100.00;101519.06;5088325;28;20589;-65
2022/08/22 04:58:37;;;;;;;11.13;9.77;;;;;;;14.75;100.00;101521.78;5088670;28;20480;-64
2022/08/22 05:01:18;;;;;;;12.35;10.35;;;;;;;14.76;100.00;101520.94;5062055;28;20024;-64
2022/08/22 05:04:07;;;;;;;11.60;10.18;;;;;;;14.76;100.00;101532.25;5088385;28;20071;-64
2022/08/22 05:06:39;;;;;;;11.63;10.48;;;;;;;14.76;100.00;101531.34;5088596;28;20487;-64
2022/08/22 05:09:11;;;;;;;11.05;9.95;;;;;;;14.75;100.00;101532.22;5088007;28;20027;-64
2022/08/22 05:11:39;;;;;;;18.45;10.57;;;;;;;14.76;100.00;101536.56;5092120;28;20486;-64
2022/08/22 05:14:15;;;;;;;12.45;10.65;;;;;;;14.78;100.00;101534.91;5092480;28;20032;-64
2022/08/22 05:16:44;;;;;;;11.50;10.10;;;;;;;14.80;100.00;101535.81;5092475;28;20054;-64
2022/08/22 05:19:18;;;;;;;13.32;11.23;;;;;;;14.81;100.00;101535.00;5092238;28;20111;-64
2022/08/22 05:21:46;;;;;;;11.32;10.30;;;;;;;14.86;100.00;101530.78;5092205;28;20027;-64
2022/08/22 05:24:28;;;;;;;13.95;10.27;;;;;;;14.91;100.00;101535.25;5091752;28;20024;-64
2022/08/22 05:26:55;;;;;;;12.30;10.65;;;;;;;14.95;100.00;101531.88;5092428;28;20592;-65
2022/08/22 05:29:27;;;;;;;13.15;10.18;;;;;;;15.01;100.00;101532.00;5092021;28;20059;-64
2022/08/22 05:31:59;;;;;;;12.32;10.48;;;;;;;15.04;100.00;101534.69;5090719;28;20024;-64
2022/08/22 05:34:29;;;;;;;14.57;10.93;;;;;;;15.09;100.00;101535.69;5089912;28;20031;-64
2022/08/22 05:37:13;;;;;;;12.85;11.48;;;;;;;15.15;100.00;101544.53;5090714;28;20028;-64
2022/08/22 05:39:45;;;;;;;15.40;10.55;;;;;;;15.19;100.00;101544.63;5089868;28;20120;-64
2022/08/22 05:42:17;;;;;;;12.10;10.88;;;;;;;15.25;100.00;101547.38;5090402;28;20438;-64
2022/08/22 05:44:42;;;;;;;12.63;11.30;;;;;;;15.29;100.00;101545.72;5090633;28;20032;-64
2022/08/22 05:47:35;;;;;;;14.90;11.98;;;;;;;15.33;100.00;101541.44;5089825;28;20020;-64
2022/08/22 05:50:07;;;;;;;14.05;11.27;;;;;;;15.39;100.00;101546.81;5089508;28;20067;-65
2022/08/22 05:52:57;;;;;;;11.77;10.52;;;;;;;15.44;100.00;101542.59;5090896;28;20717;-65
2022/08/22 05:55:29;;;;;;;11.57;10.32;;;;;;;15.52;100.00;101545.38;5090773;28;20046;-65
2022/08/22 05:58:16;;;;;;;12.77;10.52;;;;;;;15.58;100.00;101540.28;5090645;28;20486;-65
2022/08/22 06:00:46;;;;;;;14.63;11.18;;;;;;;15.63;100.00;101543.03;5089480;28;20034;-65
2022/08/22 06:03:26;;;;;;;15.65;11.90;;;;;;;15.70;100.00;101538.81;5090581;28;20103;-65
2022/08/22 06:05:57;;;;;;;13.07;11.63;;;;;;;15.75;100.00;101546.72;5090008;28;20031;-65
2022/08/22 06:08:34;;;;;;;15.32;12.13;;;;;;;15.79;100.00;101544.22;5089794;28;20380;-65
2022/08/22 06:11:26;;;;;;;15.60;12.05;;;;;;;15.84;100.00;101542.59;5089825;28;20053;-65
2022/08/22 06:14:14;;;;;;;16.98;12.68;;;;;;;15.89;100.00;101547.03;5090037;28;20568;-65
2022/08/22 06:16:43;;;;;;;13.25;11.73;;;;;;;15.93;100.00;101541.03;5089623;28;20035;-65
2022/08/22 06:19:13;;;;;;;12.88;11.45;;;;;;;15.96;100.00;101547.19;5089959;28;20430;-65
2022/08/22 06:21:40;;;;;;;12.73;11.00;;;;;;;16.02;100.00;101542.97;5089398;28;20379;-65
2022/08/22 06:24:12;;;;;;;13.77;11.45;;;;;;;16.07;100.00;101544.84;5089831;28;20566;-65
2022/08/22 06:26:43;;;;;;;12.70;10.95;;;;;;;16.13;100.00;101545.81;5089715;28;20378;-65
2022/08/22 06:29:16;;;;;;;13.32;11.95;;;;;;;16.21;100.00;101549.44;5089913;28;20036;-65
2022/08/22 06:31:45;;;;;;;16.52;11.27;;;;;;;16.27;100.00;101561.75;5052829;28;20032;-65
2022/08/22 06:34:15;;;;;;;12.77;11.48;;;;;;;16.32;100.00;101554.88;5050773;28;20035;-65
2022/08/22 06:36:45;;;;;;;13.30;11.93;;;;;;;16.38;100.00;101559.38;5050988;28;20115;-65
2022/08/22 06:39:15;;;;;;;14.63;10.90;;;;;;;16.42;100.00;101561.19;5056968;28;20547;-65
2022/08/22 06:42:07;;;;;;;13.67;10.70;;;;;;;16.46;100.00;101556.91;5074912;28;20519;-64
2022/08/22 06:44:38;;;;;;;12.75;11.48;;;;;;;16.50;100.00;101559.59;5054987;28;20044;-65
2022/08/22 06:47:07;;;;;;;14.05;11.23;;;;;;;16.55;100.00;101557.06;5062661;28;20016;-64
2022/08/22 06:49:36;;;;;;;11.43;10.23;;;;;;;16.59;100.00;101560.59;5069295;28;20024;-64
2022/08/22 06:52:06;;;;;;;17.63;12.10;;;;;;;16.61;100.00;101556.28;5071278;28;20035;-64
2022/08/22 06:54:35;;;;;;;13.50;11.80;;;;;;;16.63;100.00;101562.44;5069636;28;20025;-65
2022/08/22 06:57:04;;;;;;;15.43;12.48;;;;;;;16.65;100.00;101565.97;5068213;28;20835;-64
2022/08/22 06:59:34;;;;;;;13.68;11.85;;;;;;;16.70;100.00;101574.78;5068695;28;20090;-65
2022/08/22 07:02:15;;;;;;;15.13;12.15;;;;;;;16.74;100.00;101570.47;5068597;28;20032;-64
2022/08/22 07:04:41;;;;;;;;;;;;;;;16.80;100.00;101571.47;5065683;28;20024;-64
2022/08/22 07:07:06;;;;;;;13.07;11.57;;;;;;;16.85;100.00;101570.69;5063373;28;19916;-64
2022/08/22 07:09:34;;;;;;;14.77;11.93;;;;;;;16.90;100.00;101580.38;5050463;28;20101;-64
2022/08/22 07:12:12;;;;;;;15.48;12.60;;;;;;;16.92;100.00;101578.69;5061691;28;20523;-64
2022/08/22 07:14:41;;;;;;;14.18;12.85;;;;;;;16.97;100.00;101581.34;5063486;28;20021;-64
2022/08/22 07:17:14;;;;;;;12.52;11.35;;;;;;;17.03;100.00;101576.25;5058351;28;20412;-64
2022/08/22 07:19:47;;;;;;;14.27;12.68;;;;;;;17.07;100.00;101571.91;5057082;28;20041;-64
2022/08/22 07:22:16;;;;;;;15.68;12.50;;;;;;;17.11;100.00;101572.88;5060036;28;20522;-64
2022/08/22 07:24:56;;;;;;;15.77;13.02;;;;;;;17.13;100.00;101571.16;5053357;28;20024;-64
2022/08/22 07:27:42;;;;;;;15.77;13.90;;;;;;;17.15;100.00;101580.81;5066711;28;20035;-64
2022/08/22 07:30:11;;;;;;;17.23;13.65;;;;;;;17.20;100.00;101574.78;5055852;28;20028;-64
2022/08/22 07:32:47;;;;;;;15.35;13.75;;;;;;;17.23;100.00;101574.84;5066956;28;20340;-64
2022/08/22 07:35:20;;;;;;;15.20;13.68;;;;;;;17.33;100.00;101565.38;5067822;28;20028;-64
2022/08/22 07:37:55;;;;;;;16.02;14.35;;;;;;;17.44;100.00;101566.41;5066995;28;20028;-64
2022/08/22 07:40:56;;;;;;;17.23;15.20;;;;;;;17.59;100.00;101562.28;5072590;28;20382;-64
2022/08/22 07:43:30;;;;;;;17.02;13.88;;;;;;;17.80;100.00;101563.41;5079320;28;20505;-64
2022/08/22 07:46:11;;;;;;;15.63;14.02;;;;;;;18.04;100.00;101556.72;5088577;28;20048;-64
2022/08/22 07:48:53;;;;;;;16.92;13.90;;;;;;;18.41;100.00;101557.19;5088043;28;20016;-65
2022/08/22 07:51:34;;;;;;;13.45;12.05;;;;;;;18.73;100.00;101553.09;5088319;28;20028;-64
2022/08/22 07:54:06;;;;;;;15.60;12.75;;;;;;;18.94;100.00;101552.41;5088698;28;20071;-64
2022/08/22 07:56:51;;;;;;;14.98;11.70;;;;;;;19.42;100.00;101553.69;5088425;28;20486;-65
2022/08/22 07:59:18;;;;;;;13.98;12.32;;;;;;;19.91;97.26;101558.31;5088499;28;20038;-65
2022/08/22 08:01:53;;;;;;;12.50;11.25;;;;;;;20.51;96.23;101559.41;5087945;28;20028;-65
2022/08/22 08:04:24;;;;;;;12.32;10.93;;;;;;;21.13;94.94;101551.56;5088206;28;20020;-65
2022/08/22 08:06:53;;;;;;;11.88;10.52;;;;;;;21.47;86.66;101548.88;5088006;28;20024;-65
2022/08/22 08:09:19;;;;;;;14.20;10.60;;;;;;;21.51;83.00;101553.25;5087769;28;20110;-65
2022/08/22 08:11:48;;;;;;;14.50;9.93;;;;;;;21.64;84.22;101538.25;5087736;28;20078;-65
2022/08/22 08:14:15;;;;;;;14.80;9.88;;;;;;;21.95;83.92;101537.28;5084659;28;20095;-65
2022/08/22 08:16:55;;;;;;;11.00;9.77;;;;;;;22.32;81.97;101536.22;5077434;28;20446;-65
2022/08/22 08:19:21;;;;;;;14.05;10.07;;;;;;;22.53;80.11;101540.47;5088027;28;20797;-65
2022/08/22 08:21:52;;;;;;;13.13;10.93;;;;;;;22.79;78.55;101526.22;5087486;28;20020;-65
2022/08/22 08:24:39;;;;;;;11.95;8.90;;;;;;;23.24;78.87;101527.56;5088162;28;20107;-65
2022/08/22 08:30:01;;;;;;;13.60;9.55;;;;;;;23.59;73.31;101524.56;5088209;28;20051;-65
2022/08/22 08:32:30;;;;;;;10.30;8.80;;;;;;;23.46;73.00;101522.06;5087828;28;20031;-65
2022/08/22 08:34:56;;;;;;;11.98;9.50;;;;;;;23.34;75.25;101530.09;5088125;28;20024;-65
2022/08/22 08:37:39;;;;;;;11.43;9.55;;;;;;;23.09;75.04;101527.72;5088239;28;20020;-64
2022/08/22 08:40:35;;;;;;;12.55;10.00;;;;;;;22.71;75.75;101528.06;5087969;28;20110;-65
2022/08/22 08:43:26;;;;;;;11.70;9.13;;;;;;;22.58;78.22;101531.66;5057863;28;20066;-65
2022/08/22 08:46:33;;;;;;;13.63;9.02;;;;;;;22.49;77.06;101533.47;5091677;28;20028;-65
2022/08/22 08:49:01;;;;;;;10.70;9.43;;;;;;;22.46;77.32;101522.03;5092120;28;20039;-65
2022/08/22 08:51:41;;;;;;;12.77;8.93;;;;;;;22.45;76.51;101526.44;5091970;28;20024;-65
2022/08/22 08:54:18;;;;;;;12.85;8.25;;;;;;;22.48;75.69;101526.44;5091818;28;20426;-65
2022/08/22 08:56:58;;;;;;;9.55;8.50;;;;;;;22.62;78.26;101529.00;5091080;28;20078;-65
2022/08/22 08:59:36;;;;;;;11.25;7.45;;;;;;;22.80;80.19;101524.47;5065969;28;20034;-65
2022/08/22 09:02:07;;;;;;;12.57;8.32;;;;;;;22.98;76.15;101520.78;5091377;28;20028;-65
2022/08/22 09:05:11;;;;;;;10.43;7.38;;;;;;;22.97;72.26;101516.38;5091860;28;20031;-65
2022/08/22 09:07:55;;;;;;;8.80;6.10;;;;;;;22.93;69.22;101514.66;5090951;28;20290;-65
2022/08/22 09:10:55;;;;;;;7.80;6.10;;;;;;;22.92;69.80;101515.53;5091408;28;20080;-65
2022/08/22 09:14:01;;;;;;;9.80;5.22;;;;;;;22.92;68.55;101520.81;5071430;28;20113;-65
2022/08/22 09:16:42;;;;;;;9.68;6.10;;;;;;;22.76;67.22;101515.69;5035537;28;20033;-65
2022/08/22 09:19:29;;;;;;;8.13;5.85;;;;;;;22.70;68.21;101515.75;5090839;28;20039;-65
2022/08/22 09:22:16;;;;;;;9.90;5.35;;;;;;;22.57;68.51;101512.28;5091398;28;20472;-64
2022/08/22 09:25:15;;;;;;;10.88;5.18;;;;;;;22.59;68.45;101515.81;5090740;28;20034;-65
2022/08/22 09:28:05;;;;;;;8.55;5.22;;;;;;;22.55;67.98;101514.06;5090883;28;20024;-65
2022/08/22 09:30:49;;;;;;;8.40;5.57;;;;;;;22.54;68.71;101514.97;5090945;28;20371;-65
2022/08/22 09:33:20;;;;;;;6.88;5.65;;;;;;;22.48;67.93;101507.97;5090463;28;20111;-65
2022/08/22 09:35:54;;;;;;;9.10;5.18;;;;;;;22.46;69.03;101507.09;5091151;28;20024;-65
2022/08/22 09:38:32;;;;;;;7.55;5.00;;;;;;;22.42;68.19;101515.91;5090675;28;20259;-65
2022/08/22 09:41:43;;;;;;;9.15;5.28;;;;;;;22.39;67.93;101515.94;5090766;28;20040;-65
2022/08/22 09:44:11;;;;;;;7.47;4.55;;;;;;;22.40;68.39;101507.13;5071170;28;20322;-65
2022/08/22 09:46:57;;;;;;;7.55;4.90;;;;;;;22.42;68.13;101515.91;5090565;28;20032;-65
2022/08/22 09:50:05;;;;;;;10.50;5.03;;;;;;;22.43;68.57;101512.41;5068212;28;20072;-65
2022/08/22 09:53:05;;;;;;;10.50;5.32;;;;;;;22.46;66.93;101508.84;5027674;28;20061;-65
2022/08/22 09:55:58;;;;;;;9.48;4.90;;;;;;;22.42;65.58;101515.91;5089962;28;20103;-65
2022/08/22 09:58:43;;;;;;;13.23;5.35;;;;;;;22.42;65.90;101513.28;5089991;28;20107;-65
2022/08/22 10:01:23;;;;;;;6.32;4.30;;;;;;;22.46;67.38;101508.84;5065786;28;20028;-65
2022/08/22 10:04:24;;;;;;;7.80;4.45;;;;;;;22.53;67.23;101514.09;5090885;28;20024;-65
2022/08/22 10:07:00;;;;;;;8.15;4.70;;;;;;;22.63;66.61;101500.84;5090607;28;20028;-65
2022/08/22 10:09:31;;;;;;;13.88;5.22;;;;;;;22.66;64.85;101498.16;5090199;28;20432;-65
2022/08/22 10:12:05;;;;;;;9.32;5.53;;;;;;;22.73;64.85;101494.59;5090587;28;20533;-65
2022/08/22 10:15:03;;;;;;;6.50;4.90;;;;;;;22.86;67.96;101494.47;5090212;28;20047;-65
2022/08/22 10:17:40;;;;;;;9.77;4.50;;;;;;;23.03;67.97;101492.53;5088864;28;20495;-65
2022/08/22 10:20:24;;;;;;;8.23;5.47;;;;;;;23.15;65.79;101491.53;5090528;28;20469;-65
2022/08/22 10:23:04;;;;;;;6.85;4.60;;;;;;;23.24;66.11;101487.91;5088906;28;20547;-65
2022/08/22 10:25:41;;;;;;;8.73;4.88;;;;;;;23.34;66.72;101482.53;5086418;28;20392;-65
2022/08/22 10:28:12;;;;;;;5.78;4.05;;;;;;;23.46;66.74;101482.41;5069868;28;20043;-65
2022/08/22 10:30:59;;;;;;;9.25;4.63;;;;;;;23.57;62.48;101482.28;5080553;28;20024;-65
2022/08/22 10:33:37;;;;;;;7.35;3.20;;;;;;;23.69;60.38;101481.22;5060402;28;20037;-65
2022/08/22 10:36:09;;;;;;;6.25;3.00;;;;;;;23.77;59.29;101474.97;5068779;28;20035;-65
2022/08/22 10:38:48;;;;;;;7.25;2.75;;;;;;;23.85;59.41;101481.06;5068108;28;20108;-65
2022/08/22 10:41:40;;;;;;;6.32;3.10;;;;;;;23.80;56.99;101482.88;5077473;28;20024;-65
2022/08/22 10:44:17;;;;;;;5.55;3.00;;;;;;;23.86;59.61;101474.84;5082046;28;20268;-65
2022/08/22 10:46:54;;;;;;;5.28;2.83;;;;;;;23.97;61.13;101472.94;5089244;28;20062;-65
2022/08/22 10:49:38;;;;;;;6.68;3.38;;;;;;;24.03;57.90;101471.09;5089566;28;20067;-65
2022/08/22 10:52:40;;;;;;;7.30;3.45;;;;;;;24.05;57.17;101464.88;5089503;28;20089;-65
2022/08/22 10:55:14;;;;;;;6.60;2.78;;;;;;;24.08;56.23;101467.50;5080343;28;20031;-65
2022/08/22 10:57:59;;;;;;;6.45;2.50;;;;;;;24.15;56.15;101462.09;5089570;28;20016;-65
2022/08/22 11:00:47;;;;;;;12.80;2.95;;;;;;;24.32;54.89;101462.72;5088904;28;20043;-65
2022/08/22 11:03:31;;;;;;;7.82;2.50;;;;;;;24.58;53.96;101458.78;5089263;28;20451;-65
2022/08/22 11:06:00;;;;;;;5.53;2.30;;;;;;;24.74;52.74;101458.50;5089008;28;20377;-65
2022/08/22 11:08:25;;;;;;;3.75;2.10;;;;;;;24.76;51.03;101454.06;5087530;28;20496;-65
2022/08/22 11:10:53;;;;;;;5.07;2.00;;;;;;;24.74;52.51;101454.97;5088831;28;20058;-65
2022/08/22 11:13:42;;;;;;;4.82;1.75;;;;;;;24.78;51.07;101464.63;5088953;28;20066;-65
2022/08/22 11:16:13;;;;;;;5.03;2.10;;;;;;;24.80;51.08;101454.88;5056874;28;20149;-65
2022/08/22 11:19:01;;;;;;;4.05;1.67;;;;;;;24.83;49.17;101457.47;5088815;28;20081;-65
2022/08/22 11:21:42;;;;;;;5.65;1.88;;;;;;;24.85;49.88;101462.72;5088432;28;20020;-65
2022/08/22 11:24:16;;;;;;;4.63;1.63;;;;;;;24.86;50.38;101460.03;5088664;28;20385;-65
2022/08/22 11:26:45;;;;;;;4.80;1.73;;;;;;;24.90;50.58;101458.22;5088667;28;20515;-65
2022/08/22 11:29:25;;;;;;;4.32;2.22;;;;;;;24.93;49.24;101451.13;5074806;28;20036;-65
2022/08/22 11:32:00;;;;;;;5.40;2.23;;;;;;;25.01;49.39;101452.75;5088885;28;20502;-65
2022/08/22 11:34:43;;;;;;;3.88;1.65;;;;;;;25.11;50.36;101453.44;5088417;28;20380;-65
2022/08/22 11:37:21;;;;;;;6.60;2.00;;;;;;;25.18;51.20;101455.09;5088696;28;20020;-65
2022/08/22 11:40:11;;;;;;;4.78;2.03;;;;;;;25.24;51.06;101447.00;5088452;28;20052;-65
2022/08/22 11:42:44;;;;;;;6.93;2.08;;;;;;;25.24;49.97;101438.19;5065642;28;20044;-65
2022/08/22 11:45:18;;;;;;;7.22;2.42;;;;;;;25.14;50.00;101437.47;5088308;28;20032;-65
2022/08/22 11:48:05;;;;;;;5.03;1.77;;;;;;;25.07;51.05;101450.00;5087828;28;20117;-65
2022/08/22 11:50:37;;;;;;;6.47;2.45;;;;;;;25.02;49.23;101438.59;5088358;28;20119;-65
2022/08/22 11:53:45;;;;;;;3.60;1.42;;;;;;;25.04;50.52;101435.00;5088419;28;20611;-65
2022/08/22 11:56:33;;;;;;;4.35;1.98;;;;;;;25.08;48.79;101433.16;5088372;28;20530;-65
2022/08/22 11:59:05;;;;;;;6.18;2.13;;;;;;;25.03;49.54;101435.03;5088351;28;20020;-65
2022/08/22 12:01:46;;;;;;;9.80;2.88;;;;;;;24.99;49.20;101431.56;5088275;28;20126;-65
2022/08/22 12:04:30;;;;;;;6.70;1.90;;;;;;;24.93;49.02;101439.66;5087936;28;20028;-65
2022/08/22 12:07:03;;;;;;;4.38;2.00;;;;;;;24.88;50.11;101438.84;5087716;28;20418;-65
2022/08/22 12:09:53;;;;;;;6.97;2.35;;;;;;;24.90;51.38;101439.66;5088049;28;20544;-65
2022/08/22 12:12:19;;;;;;;6.25;2.00;;;;;;;24.92;51.78;101430.81;5073625;28;20028;-65
2022/08/22 12:14:58;;;;;;;6.75;2.25;;;;;;;24.92;50.78;101429.91;5080324;28;20028;-65